This is the latest recevied weather packets stored in our database for station/object N7NIP. If no packets are shown the sender has not sent any weather packets the latest 10 day(s).
| Time | Temp. | Humidity | Pressure | Rain* | Wind** | Luminosity | Snow |
|---|---|---|---|---|---|---|---|
| 1778209899 | 13.89° C | 78% | 1031.3 hPa | 0 mm | - | 13 W/m² | - |
| 1778209595 | 13.89° C | 77% | 1031.3 hPa | 0 mm | - | 17 W/m² | - |
| 1778209293 | 14.44° C | 76% | 1031.1 hPa | 0 mm | - | 19 W/m² | - |
| 1778208989 | 14.44° C | 76% | 1031.4 hPa | 0 mm | - | 21 W/m² | - |
| 1778208687 | 15° C | 74% | 1031.3 hPa | 0 mm | - | 24 W/m² | - |
| 1778208382 | 15° C | 74% | 1031.5 hPa | 0 mm | - | 31 W/m² | - |
| 1778208080 | 15° C | 72% | 1031.3 hPa | 0 mm | - | 27 W/m² | - |
| 1778207775 | 15.56° C | 71% | 1031.4 hPa | 0 mm | - | 27 W/m² | - |
| 1778207473 | 15.56° C | 66% | 1031.2 hPa | 0 mm | - | 32 W/m² | - |
| 1778207169 | 15.56° C | 66% | 1031.5 hPa | 0 mm | - | 34 W/m² | - |
| 1778206867 | 15.56° C | 65% | 1031.5 hPa | 0 mm | - | 44 W/m² | - |
| 1778206562 | 15.56° C | 65% | 1031.4 hPa | 0 mm | - | 52 W/m² | - |
| 1778206258 | 16.11° C | 63% | 1031.3 hPa | 0 mm | - | 64 W/m² | - |
| 1778205956 | 16.11° C | 64% | 1031.4 hPa | 0 mm | - | 81 W/m² | - |
| 1778205653 | 16.11° C | 63% | 1031.3 hPa | 0 mm | - | 104 W/m² | - |
| 1778205351 | 16.67° C | 61% | 1031.4 hPa | 0 mm | - | 127 W/m² | - |
| 1778205047 | 17.78° C | 58% | 1031.3 hPa | 0 mm | - | 166 W/m² | - |
| 1778204744 | 17.78° C | 60% | 1031.3 hPa | 0 mm | - | 204 W/m² | - |
| 1778204440 | 16.67° C | 63% | 1031.4 hPa | 0 mm | - | 219 W/m² | - |
| 1778204136 | 16.11° C | 64% | 1031.5 hPa | 0 mm | - | 232 W/m² | - |
| 1778203833 | 16.11° C | 65% | 1031.7 hPa | 0 mm | - | 163 W/m² | - |
| 1778203531 | 16.67° C | 63% | 1031.7 hPa | 0 mm | - | 179 W/m² | - |
| 1778203228 | 16.67° C | 63% | 1031.9 hPa | 0 mm | - | 189 W/m² | - |
| 1778202926 | 16.11° C | 63% | 1031.9 hPa | 0 mm | - | 187 W/m² | - |
| 1778202623 | 16.11° C | 62% | 1032 hPa | 0 mm | - | 188 W/m² | - |
* Rain latest hour (hover to see other rain measurements)
** Current wind speed in m/s (hover to see current wind gust speed)